CFE weather

Clermont-Ferrand Auvergne Airport
Clermont-Ferrand/Auvergne, Auvergne, France

Public forecast

Using degrees Celsius for public forecast. Weather courtesy of forecast.io.

METAR (pilot weather report)

Retrieved 2019/07/16 08:30 UTC (0 seconds ago):

LFLC 160830Z AUTO 01004KT 320V090 CAVOK 21/09 Q1018 NOSIG

TAF (pilot weather forecast)

Retrieved 2019/07/16 09:21 UTC (0 seconds ago):

TAF LFLC 160800Z 1609/1709 02006KT CAVOK